createdAt,value
2023-05-13T00:02:52.982Z,23.08
2023-05-13T00:07:55.903Z,23.04
2023-05-13T00:12:58.720Z,22.98
2023-05-13T00:18:02.926Z,22.96
2023-05-13T00:23:07.725Z,22.90
2023-05-13T00:28:10.800Z,22.86
2023-05-13T00:33:14.963Z,22.83
2023-05-13T00:38:17.765Z,22.77
2023-05-13T00:43:20.708Z,22.67
2023-05-13T00:48:24.975Z,22.62
2023-05-13T00:53:27.709Z,22.59
2023-05-13T00:58:30.498Z,22.56
2023-05-13T01:03:40.073Z,22.50
2023-05-13T01:08:46.820Z,22.46
2023-05-13T01:13:50.460Z,22.42
2023-05-13T01:18:57.875Z,22.39
2023-05-13T01:24:02.680Z,22.33
2023-05-13T01:29:05.874Z,22.30
2023-05-13T01:34:10.414Z,22.26
2023-05-13T01:39:15.357Z,22.23
2023-05-13T01:44:18.331Z,22.17
2023-05-13T01:49:21.359Z,22.13
2023-05-13T01:54:25.893Z,22.01
2023-05-13T01:59:34.310Z,22.05
2023-05-13T02:04:37.800Z,22.01
2023-05-13T02:09:42.406Z,21.97
2023-05-13T02:14:45.245Z,21.93
2023-05-13T02:19:48.022Z,21.90
2023-05-13T02:24:52.464Z,21.87
2023-05-13T02:29:56.043Z,21.84
2023-05-13T02:34:59.092Z,21.81
2023-05-13T02:40:03.623Z,21.77
2023-05-13T02:45:07.696Z,21.74
2023-05-13T02:50:13.615Z,21.72
2023-05-13T02:55:19.265Z,21.66
2023-05-13T03:00:22.789Z,21.64
2023-05-13T03:05:27.194Z,21.62
2023-05-13T03:10:32.781Z,21.60
2023-05-13T03:15:35.529Z,21.57
2023-05-13T03:20:38.318Z,21.54
2023-05-13T03:25:42.670Z,21.51
2023-05-13T03:30:46.077Z,21.47
2023-05-13T03:35:53.254Z,21.44
2023-05-13T03:41:02.812Z,21.41
2023-05-13T03:46:05.769Z,21.37
2023-05-13T03:51:08.729Z,21.37
2023-05-13T03:56:13.620Z,21.34
2023-05-13T04:01:17.042Z,21.33
2023-05-13T04:06:19.901Z,21.31
2023-05-13T04:11:24.813Z,21.31
2023-05-13T04:16:27.934Z,21.29
2023-05-13T04:21:31.325Z,21.27
2023-05-13T04:26:35.555Z,21.29
2023-05-13T04:31:38.433Z,21.28
2023-05-13T04:36:41.396Z,21.28
2023-05-13T04:41:46.626Z,21.30
2023-05-13T04:46:50.470Z,21.31
2023-05-13T04:51:54.198Z,21.33
2023-05-13T04:56:58.803Z,21.34
2023-05-13T05:02:01.907Z,21.35
2023-05-13T05:07:05.379Z,21.37
2023-05-13T05:12:10.565Z,21.37
2023-05-13T05:17:16.802Z,21.40
2023-05-13T05:22:19.887Z,21.42
2023-05-13T05:27:24.129Z,21.42
2023-05-13T05:32:27.090Z,21.44
2023-05-13T05:37:30.768Z,21.44
2023-05-13T05:42:35.644Z,21.45
2023-05-13T05:47:39.012Z,21.44
2023-05-13T05:52:42.050Z,21.45
2023-05-13T05:57:48.883Z,21.48
2023-05-13T06:02:52.077Z,21.48
2023-05-13T06:07:55.506Z,21.49
2023-05-13T06:13:00.224Z,21.52
2023-05-13T06:18:06.066Z,21.52
2023-05-13T06:23:10.781Z,21.52
2023-05-13T06:28:15.045Z,21.55
2023-05-13T06:33:18.111Z,21.57
2023-05-13T06:38:21.079Z,21.58
2023-05-13T06:43:26.874Z,21.60
2023-05-13T06:48:33.777Z,21.62
2023-05-13T06:53:37.353Z,21.62
2023-05-13T06:58:41.552Z,21.65
2023-05-13T07:03:44.402Z,21.67
2023-05-13T07:08:47.277Z,21.61
2023-05-13T07:13:51.428Z,21.20
2023-05-13T07:18:54.924Z,20.53
2023-05-13T07:23:57.753Z,20.79
2023-05-13T07:29:02.626Z,20.71
2023-05-13T07:34:06.042Z,20.06
2023-05-13T07:39:09.288Z,20.03
2023-05-13T07:44:13.508Z,20.72
2023-05-13T07:49:16.360Z,20.84
2023-05-13T07:54:19.318Z,20.72
2023-05-13T07:59:23.489Z,20.67
2023-05-13T08:04:26.971Z,20.61
2023-05-13T08:09:29.764Z,20.27
2023-05-13T08:14:33.935Z,20.57
2023-05-13T08:19:36.998Z,20.88
2023-05-13T08:24:40.817Z,21.05
2023-05-13T08:29:44.977Z,21.13
2023-05-13T08:34:47.821Z,21.18
2023-05-13T08:39:50.675Z,21.24
2023-05-13T08:44:54.826Z,21.27
2023-05-13T08:49:57.653Z,21.33
2023-05-13T08:55:00.624Z,21.40
2023-05-13T09:00:05.288Z,21.42
2023-05-13T09:05:08.990Z,21.46
2023-05-13T09:10:12.213Z,21.49
2023-05-13T09:15:17.397Z,21.51
2023-05-13T09:20:21.165Z,21.54
2023-05-13T09:25:24.983Z,21.57
2023-05-13T09:30:29.974Z,21.59
2023-05-13T09:35:32.967Z,21.62
2023-05-13T09:40:35.725Z,21.64
2023-05-13T09:45:39.820Z,21.67
2023-05-13T09:50:49.734Z,21.71
2023-05-13T09:55:54.198Z,21.66
2023-05-13T10:00:58.454Z,21.64
2023-05-13T10:06:03.424Z,21.59
2023-05-13T10:11:06.925Z,21.51
2023-05-13T10:16:11.110Z,21.52
2023-05-13T10:21:14.071Z,21.48
2023-05-13T10:26:24.460Z,21.45
2023-05-13T10:31:35.709Z,21.48
2023-05-13T10:37:03.045Z,21.54
2023-05-13T10:42:37.722Z,21.57
2023-05-13T10:47:42.093Z,21.57
2023-05-13T10:52:47.787Z,21.62
2023-05-13T10:58:09.723Z,21.72
2023-05-13T11:03:29.815Z,21.80
2023-05-13T11:08:42.523Z,21.82
2023-05-13T11:13:45.506Z,21.92
2023-05-13T11:18:50.270Z,22.04
2023-05-13T11:23:54.085Z,22.11
2023-05-13T11:28:58.211Z,22.01
2023-05-13T11:34:09.429Z,22.12
2023-05-13T11:39:14.401Z,22.15
2023-05-13T11:44:18.202Z,22.27
2023-05-13T11:49:35.500Z,22.35
2023-05-13T11:54:42.959Z,22.38
2023-05-13T11:59:51.069Z,22.31
2023-05-13T12:04:55.321Z,22.55
2023-05-13T12:09:58.749Z,22.65
2023-05-13T12:15:02.540Z,22.67
2023-05-13T12:20:11.490Z,22.67
2023-05-13T12:25:40.461Z,22.64
2023-05-13T12:30:44.203Z,22.61
2023-05-13T12:35:49.425Z,22.52
2023-05-13T12:40:52.416Z,22.50
2023-05-13T12:45:56.531Z,22.49
2023-05-13T12:51:02.121Z,22.52
2023-05-13T12:56:05.902Z,22.54
2023-05-13T13:01:08.826Z,22.60
2023-05-13T13:06:13.055Z,22.98
2023-05-13T13:11:18.881Z,23.07
2023-05-13T13:16:21.912Z,22.91
2023-05-13T13:21:26.087Z,22.86
2023-05-13T13:26:28.857Z,22.91
2023-05-13T13:31:31.771Z,23.16
2023-05-13T13:36:35.881Z,23.03
2023-05-13T13:41:38.841Z,23.24
2023-05-13T13:46:41.660Z,23.37
2023-05-13T13:51:45.910Z,23.38
2023-05-13T13:56:48.998Z,23.32
2023-05-13T14:01:52.727Z,23.35
2023-05-13T14:06:57.210Z,23.25
2023-05-13T14:12:00.012Z,23.18
2023-05-13T14:17:02.830Z,23.12
2023-05-13T14:22:07.179Z,23.07
2023-05-13T14:27:10.046Z,23.05
2023-05-13T14:32:12.822Z,23.06
2023-05-13T14:37:16.987Z,23.05
2023-05-13T14:42:21.103Z,23.09
2023-05-13T14:47:24.038Z,23.07
2023-05-13T14:52:28.169Z,23.12
2023-05-13T14:57:31.008Z,23.58
2023-05-13T15:02:33.924Z,23.72
2023-05-13T15:07:38.232Z,23.69
2023-05-13T15:12:41.052Z,23.47
2023-05-13T15:17:44.025Z,23.09
2023-05-13T15:22:48.352Z,23.45
2023-05-13T15:27:51.438Z,23.18
2023-05-13T15:32:54.217Z,23.51
2023-05-13T15:37:58.400Z,23.99
2023-05-13T15:43:01.214Z,24.02
2023-05-13T15:48:04.128Z,24.05
2023-05-13T15:53:08.361Z,23.97
2023-05-13T15:58:11.182Z,23.77
2023-05-13T16:03:13.977Z,23.96
2023-05-13T16:08:19.260Z,24.07
2023-05-13T16:13:22.638Z,24.23
2023-05-13T16:18:25.482Z,24.22
2023-05-13T16:23:29.654Z,24.31
2023-05-13T16:28:32.444Z,24.19
2023-05-13T16:33:36.200Z,23.85
2023-05-13T16:38:41.294Z,23.49
2023-05-13T16:43:44.303Z,23.00
2023-05-13T16:48:47.145Z,22.72
2023-05-13T16:53:51.347Z,22.66
2023-05-13T16:58:54.227Z,22.81
2023-05-13T17:03:57.030Z,22.91
2023-05-13T17:09:01.150Z,22.94
2023-05-13T17:14:04.237Z,22.93
2023-05-13T17:19:07.092Z,22.91
2023-05-13T17:24:11.391Z,22.91
2023-05-13T17:29:14.217Z,22.89
2023-05-13T17:34:16.974Z,22.86
2023-05-13T17:39:21.146Z,22.83
2023-05-13T17:44:24.143Z,22.78
2023-05-13T17:49:27.013Z,22.73
2023-05-13T17:54:31.607Z,22.67
2023-05-13T17:59:34.405Z,22.63
2023-05-13T18:04:37.199Z,22.57
2023-05-13T18:09:41.502Z,22.53
2023-05-13T18:14:44.272Z,22.49
2023-05-13T18:19:47.070Z,22.42
2023-05-13T18:24:51.308Z,22.39
2023-05-13T18:29:54.241Z,22.36
2023-05-13T18:34:57.032Z,22.31
2023-05-13T18:40:01.878Z,22.24
2023-05-13T18:45:05.447Z,22.19
2023-05-13T18:50:08.600Z,22.16
2023-05-13T18:55:12.834Z,22.08
2023-05-13T19:00:16.722Z,22.08
2023-05-13T19:05:20.513Z,22.11
2023-05-13T19:10:25.029Z,22.14
2023-05-13T19:15:27.974Z,22.14
2023-05-13T19:20:30.791Z,22.14
2023-05-13T19:25:35.100Z,22.17
2023-05-13T19:30:37.938Z,22.18
2023-05-13T19:35:40.705Z,22.21
2023-05-13T19:40:45.297Z,22.25
2023-05-13T19:45:48.081Z,22.26
2023-05-13T19:50:53.350Z,22.28
2023-05-13T19:55:57.628Z,22.31
2023-05-13T20:01:01.189Z,22.33
2023-05-13T20:06:04.161Z,22.32
2023-05-13T20:11:08.360Z,22.38
2023-05-13T20:16:11.132Z,22.41
2023-05-13T20:21:13.891Z,22.44
2023-05-13T20:26:18.063Z,22.45
2023-05-13T20:31:21.011Z,22.47
2023-05-13T20:36:23.834Z,22.50
2023-05-13T20:41:28.119Z,22.52
2023-05-13T20:46:31.165Z,22.54
2023-05-13T20:51:34.123Z,22.55
2023-05-13T20:56:38.442Z,22.58
2023-05-13T21:01:47.058Z,22.60
2023-05-13T21:06:49.846Z,22.62
2023-05-13T21:11:53.953Z,22.64
2023-05-13T21:16:56.786Z,22.65
2023-05-13T21:22:01.540Z,22.67
2023-05-13T21:27:06.432Z,22.69
2023-05-13T21:32:09.234Z,22.72
2023-05-13T21:37:12.036Z,22.74
2023-05-13T21:42:16.154Z,22.74
2023-05-13T21:47:18.989Z,22.75
2023-05-13T21:52:21.841Z,22.78
2023-05-13T21:57:26.277Z,22.78
2023-05-13T22:02:29.163Z,22.79
2023-05-13T22:07:32.103Z,22.82
2023-05-13T22:12:36.727Z,22.83
2023-05-13T22:17:39.599Z,22.84
2023-05-13T22:22:42.487Z,22.86
2023-05-13T22:27:47.643Z,22.86
2023-05-13T22:32:50.968Z,22.87
2023-05-13T22:37:53.811Z,22.88
2023-05-13T22:42:57.962Z,22.88
2023-05-13T22:48:00.805Z,22.89
2023-05-13T22:53:03.652Z,22.90
2023-05-13T22:58:08.070Z,22.92
2023-05-13T23:03:10.945Z,22.92
2023-05-13T23:08:13.823Z,22.93
2023-05-13T23:13:17.925Z,22.92
2023-05-13T23:18:20.747Z,22.94
2023-05-13T23:23:23.486Z,22.93
2023-05-13T23:28:27.635Z,22.95
2023-05-13T23:33:30.418Z,22.94
2023-05-13T23:38:33.273Z,22.93
2023-05-13T23:43:37.436Z,22.93
2023-05-13T23:48:40.192Z,22.92
2023-05-13T23:53:42.962Z,22.91
2023-05-13T23:58:47.242Z,22.90
